Venezia / Tessera - Marco Polo Airport LIPZ

Flugplatz Daten

Name: Venezia / Tessera - Marco Polo Airport

Ident: LIPZ

Lat: 45,50529861

Long: 12,3519001

Platzhöhe: 7 ft

IataCode: VCE

City: Venezia

Homepage: http://www.veniceairport.com/core/index.jsp?_requestid=37300&language=en

Metar

2021/12/04 00:20
LIPZ 040020Z 02007KT 9999 SCT065 03/M01 Q1015 NOSIG

Taf

2021/12/03 00:00
TAF LIPZ 032300Z 0400/0506 03006KT 9999 SCT040
TEMPO 0500/0506 4000 RA
Gewünschte Webcam nicht vorhanden? Dann fügen Sie eine hinzu. Sie wird dann so schnell wie möglich freigeschaltet
Url: Title: